createdAt,value
2023-03-19T00:02:22.754Z,67.88
2023-03-19T00:04:52.969Z,67.94
2023-03-19T00:07:23.211Z,68.32
2023-03-19T00:09:53.632Z,68.58
2023-03-19T00:12:24.196Z,68.60
2023-03-19T00:14:54.504Z,68.28
2023-03-19T00:17:25.322Z,68.70
2023-03-19T00:19:55.611Z,68.57
2023-03-19T00:22:25.877Z,68.63
2023-03-19T00:24:57.036Z,68.53
2023-03-19T00:27:27.880Z,68.65
2023-03-19T00:29:58.044Z,68.40
2023-03-19T00:32:28.803Z,68.50
2023-03-19T00:34:59.121Z,68.24
2023-03-19T00:37:30.160Z,68.30
2023-03-19T00:40:00.662Z,68.09
2023-03-19T00:42:30.741Z,68.21
2023-03-19T00:45:00.642Z,68.41
2023-03-19T00:47:30.771Z,68.28
2023-03-19T00:50:01.021Z,68.28
2023-03-19T00:52:31.082Z,68.22
2023-03-19T00:55:01.225Z,68.38
2023-03-19T00:57:31.973Z,68.56
2023-03-19T01:00:03.125Z,68.40
2023-03-19T01:02:35.184Z,69.00
2023-03-19T01:05:05.624Z,68.37
2023-03-19T01:07:35.868Z,68.61
2023-03-19T01:10:07.099Z,68.63
2023-03-19T01:12:37.381Z,68.33
2023-03-19T01:15:16.125Z,68.16
2023-03-19T01:17:46.350Z,68.14
2023-03-19T01:20:22.267Z,68.05
2023-03-19T01:22:53.236Z,68.06
2023-03-19T01:25:24.454Z,68.24
2023-03-19T01:28:04.088Z,68.13
2023-03-19T01:30:34.691Z,68.43
2023-03-19T01:33:17.886Z,68.58
2023-03-19T01:36:07.369Z,67.82
2023-03-19T01:38:52.136Z,67.76
2023-03-19T01:41:22.572Z,67.47
2023-03-19T01:43:54.839Z,68.00
2023-03-19T01:47:02.214Z,67.77
2023-03-19T01:49:42.688Z,67.68
2023-03-19T01:55:30.354Z,67.29
2023-03-19T01:58:15.599Z,67.23
2023-03-19T02:01:16.572Z,66.94
2023-03-19T02:03:50.513Z,66.85
2023-03-19T02:06:32.536Z,66.57
2023-03-19T02:09:03.264Z,66.16
2023-03-19T02:11:34.467Z,66.44
2023-03-19T02:14:04.471Z,66.29
2023-03-19T02:16:34.722Z,66.42
2023-03-19T02:19:05.068Z,65.99
2023-03-19T02:21:35.912Z,66.21
2023-03-19T02:24:19.881Z,66.69
2023-03-19T02:27:05.930Z,66.36
2023-03-19T02:29:36.685Z,67.00
2023-03-19T02:32:07.419Z,67.10
2023-03-19T02:34:42.393Z,66.40
2023-03-19T02:37:39.016Z,66.36
2023-03-19T02:40:15.857Z,66.62
2023-03-19T02:42:46.024Z,66.18
2023-03-19T02:45:17.109Z,66.07
2023-03-19T02:47:47.242Z,65.12
2023-03-19T02:50:17.264Z,66.01
2023-03-19T02:52:47.431Z,65.94
2023-03-19T02:55:20.934Z,65.73
2023-03-19T02:57:52.077Z,65.87
2023-03-19T03:00:23.006Z,65.54
2023-03-19T03:02:53.637Z,65.27
2023-03-19T03:05:24.791Z,64.86
2023-03-19T03:07:55.994Z,65.59
2023-03-19T03:10:26.131Z,65.12
2023-03-19T03:12:56.475Z,64.99
2023-03-19T03:16:15.314Z,65.04
2023-03-19T03:18:45.546Z,65.19
2023-03-19T03:21:16.327Z,65.18
2023-03-19T03:23:47.227Z,65.58
2023-03-19T03:26:17.993Z,65.72
2023-03-19T03:28:48.189Z,65.35
2023-03-19T03:31:20.248Z,65.75
2023-03-19T03:33:52.307Z,66.00
2023-03-19T03:36:22.486Z,66.14
2023-03-19T03:38:52.612Z,65.93
2023-03-19T03:41:23.698Z,65.81
2023-03-19T03:43:54.557Z,65.87
2023-03-19T03:46:27.740Z,65.28
2023-03-19T03:48:58.196Z,65.85
2023-03-19T03:51:28.849Z,65.81
2023-03-19T03:54:00.045Z,65.31
2023-03-19T03:56:30.357Z,65.33
2023-03-19T03:59:00.423Z,65.49
2023-03-19T04:01:31.316Z,65.44
2023-03-19T04:04:02.592Z,65.55
2023-03-19T04:06:33.398Z,65.16
2023-03-19T04:09:23.085Z,64.89
2023-03-19T04:11:54.268Z,64.68
2023-03-19T04:14:24.925Z,64.70
2023-03-19T04:16:55.417Z,64.46
2023-03-19T04:19:25.591Z,64.70
2023-03-19T04:21:55.700Z,65.03
2023-03-19T04:24:26.184Z,64.97
2023-03-19T04:26:56.357Z,65.21
2023-03-19T04:29:26.501Z,65.12
2023-03-19T04:31:56.624Z,64.85
2023-03-19T04:34:27.713Z,64.56
2023-03-19T04:36:58.663Z,64.81
2023-03-19T04:39:29.385Z,64.90
2023-03-19T04:42:00.848Z,64.82
2023-03-19T04:44:37.501Z,64.39
2023-03-19T04:47:08.287Z,64.56
2023-03-19T04:49:51.102Z,64.48
2023-03-19T04:52:22.658Z,64.80
2023-03-19T04:54:53.401Z,64.76
2023-03-19T04:57:23.586Z,64.46
2023-03-19T04:59:56.432Z,64.43
2023-03-19T05:02:26.953Z,64.06
2023-03-19T05:04:58.758Z,64.07
2023-03-19T05:07:29.478Z,64.04
2023-03-19T05:10:02.627Z,63.84
2023-03-19T05:12:33.022Z,63.97
2023-03-19T05:15:03.930Z,63.59
2023-03-19T05:17:38.695Z,63.75
2023-03-19T05:20:17.569Z,63.75
2023-03-19T05:22:55.319Z,63.30
2023-03-19T05:25:37.572Z,63.89
2023-03-19T05:28:10.972Z,63.75
2023-03-19T05:30:41.476Z,62.95
2023-03-19T05:33:20.122Z,62.26
2023-03-19T05:35:51.006Z,62.13
2023-03-19T05:38:26.872Z,62.44
2023-03-19T05:41:10.272Z,62.31
2023-03-19T05:43:48.759Z,62.42
2023-03-19T05:46:34.676Z,62.41
2023-03-19T05:49:04.862Z,62.33
2023-03-19T05:51:36.587Z,61.69
2023-03-19T05:54:07.022Z,61.90
2023-03-19T05:56:39.521Z,61.74
2023-03-19T05:59:48.216Z,61.59
2023-03-19T06:02:38.599Z,61.61
2023-03-19T06:05:34.854Z,61.57
2023-03-19T06:08:13.488Z,61.62
2023-03-19T06:11:02.025Z,61.56
2023-03-19T06:13:32.702Z,61.50
2023-03-19T06:16:07.644Z,61.29
2023-03-19T06:18:41.461Z,61.00
2023-03-19T06:21:14.528Z,61.01
2023-03-19T06:23:44.541Z,60.70
2023-03-19T06:26:18.006Z,60.44
2023-03-19T06:28:56.302Z,59.99
2023-03-19T06:31:26.918Z,60.27
2023-03-19T06:34:01.266Z,60.48
2023-03-19T06:36:40.552Z,60.40
2023-03-19T06:39:13.386Z,60.12
2023-03-19T06:41:43.737Z,60.46
2023-03-19T06:44:19.215Z,60.14
2023-03-19T06:46:49.262Z,60.21
2023-03-19T06:49:23.790Z,60.11
2023-03-19T06:51:54.869Z,59.23
2023-03-19T06:54:24.669Z,59.89
2023-03-19T06:56:54.580Z,60.31
2023-03-19T06:59:24.835Z,59.72
2023-03-19T07:01:54.911Z,59.34
2023-03-19T07:04:25.087Z,59.12
2023-03-19T07:06:55.234Z,58.67
2023-03-19T07:09:25.704Z,58.44
2023-03-19T07:11:55.898Z,58.49
2023-03-19T07:14:26.727Z,58.58
2023-03-19T07:16:56.811Z,58.64
2023-03-19T07:19:26.849Z,58.79
2023-03-19T07:21:57.032Z,57.79
2023-03-19T07:24:27.154Z,58.42
2023-03-19T07:26:57.130Z,58.00
2023-03-19T07:29:27.219Z,57.94
2023-03-19T07:31:57.441Z,57.77
2023-03-19T07:34:28.535Z,57.74
2023-03-19T07:36:58.930Z,57.54
2023-03-19T07:39:28.795Z,57.40
2023-03-19T07:41:58.906Z,57.10
2023-03-19T07:44:29.026Z,57.51
2023-03-19T07:46:59.147Z,57.47
2023-03-19T07:49:29.059Z,57.64
2023-03-19T07:51:59.033Z,57.45
2023-03-19T07:54:28.888Z,56.97
2023-03-19T07:56:58.757Z,56.63
2023-03-19T07:59:28.858Z,57.08
2023-03-19T08:01:58.740Z,56.79
2023-03-19T08:04:29.353Z,57.04
2023-03-19T08:06:59.450Z,56.71
2023-03-19T08:09:29.784Z,56.58
2023-03-19T08:11:59.851Z,56.63
2023-03-19T08:14:29.727Z,57.17
2023-03-19T08:16:59.899Z,56.95
2023-03-19T08:19:30.399Z,57.14
2023-03-19T08:22:00.301Z,57.26
2023-03-19T08:24:30.510Z,56.84
2023-03-19T08:27:00.893Z,56.98
2023-03-19T08:29:31.820Z,56.94
2023-03-19T08:32:03.386Z,57.32
2023-03-19T08:34:33.735Z,56.90
2023-03-19T08:37:04.274Z,57.36
2023-03-19T08:39:34.347Z,57.12
2023-03-19T08:42:04.181Z,57.24
2023-03-19T08:44:34.356Z,56.90
2023-03-19T08:47:04.890Z,56.98
2023-03-19T08:49:35.491Z,57.13
2023-03-19T08:52:05.665Z,56.97
2023-03-19T08:54:36.006Z,57.24
2023-03-19T08:57:06.497Z,57.19
2023-03-19T08:59:36.644Z,56.96
2023-03-19T09:02:06.636Z,57.10
2023-03-19T09:04:41.146Z,57.33
2023-03-19T09:07:15.280Z,57.29
2023-03-19T09:09:47.170Z,57.34
2023-03-19T09:12:19.136Z,56.94
2023-03-19T09:14:49.108Z,57.20
2023-03-19T09:17:20.384Z,56.90
2023-03-19T09:19:50.599Z,56.54
2023-03-19T09:22:20.673Z,57.07
2023-03-19T09:24:50.666Z,57.33
2023-03-19T09:27:21.288Z,57.13
2023-03-19T09:29:51.413Z,57.58
2023-03-19T09:32:21.725Z,57.86
2023-03-19T09:34:51.794Z,57.89
2023-03-19T09:37:21.821Z,57.98
2023-03-19T09:39:52.014Z,58.13
2023-03-19T09:42:39.670Z,58.34
2023-03-19T09:45:21.363Z,58.70
2023-03-19T09:47:58.388Z,58.90
2023-03-19T09:50:34.667Z,58.77
2023-03-19T09:53:19.107Z,58.48
2023-03-19T09:55:56.973Z,58.24
2023-03-19T09:58:34.258Z,58.06
2023-03-19T10:01:06.296Z,57.91
2023-03-19T10:04:03.981Z,58.32
2023-03-19T10:06:38.925Z,58.18
2023-03-19T10:09:23.911Z,58.50
2023-03-19T10:12:05.170Z,59.02
2023-03-19T10:14:41.098Z,59.31
2023-03-19T10:17:20.856Z,59.18
2023-03-19T10:20:28.097Z,59.12
2023-03-19T10:23:13.203Z,59.37
2023-03-19T10:25:47.193Z,59.73
2023-03-19T10:28:20.875Z,59.66
2023-03-19T10:31:00.037Z,59.55
2023-03-19T10:33:46.361Z,60.00
2023-03-19T10:36:16.950Z,60.16
2023-03-19T10:38:47.129Z,60.26
2023-03-19T10:41:34.768Z,60.40
2023-03-19T10:44:08.304Z,60.13
2023-03-19T10:46:44.522Z,60.20
2023-03-19T10:49:16.902Z,61.02
2023-03-19T10:51:48.696Z,61.09
2023-03-19T10:54:27.957Z,61.24
2023-03-19T10:57:01.068Z,61.76
2023-03-19T10:59:38.868Z,61.82
2023-03-19T11:02:34.080Z,62.06
2023-03-19T11:05:27.251Z,63.06
2023-03-19T11:08:04.355Z,62.43
2023-03-19T11:10:38.185Z,62.51
2023-03-19T11:13:18.370Z,62.60
2023-03-19T11:15:50.854Z,62.43
2023-03-19T11:18:27.641Z,62.84
2023-03-19T11:21:04.447Z,62.57
2023-03-19T11:23:45.080Z,62.86
2023-03-19T11:26:23.113Z,62.46
2023-03-19T11:28:54.647Z,63.13
2023-03-19T11:31:36.762Z,63.18
2023-03-19T11:34:34.462Z,62.91
2023-03-19T11:37:11.822Z,63.48
2023-03-19T11:40:00.691Z,64.14
2023-03-19T11:42:55.722Z,64.30
2023-03-19T11:45:33.191Z,64.94
2023-03-19T11:48:32.257Z,65.01
2023-03-19T11:51:08.339Z,65.11
2023-03-19T11:53:50.388Z,64.79
2023-03-19T11:56:41.834Z,64.81
2023-03-19T11:59:18.771Z,64.81
2023-03-19T12:02:03.984Z,64.45
2023-03-19T12:04:40.164Z,64.46
2023-03-19T12:07:21.985Z,64.29
2023-03-19T12:09:58.136Z,64.13
2023-03-19T12:12:37.356Z,63.90
2023-03-19T12:15:36.596Z,63.58
2023-03-19T12:18:18.687Z,63.56
2023-03-19T12:20:55.584Z,63.60
2023-03-19T12:23:35.989Z,63.99
2023-03-19T12:26:09.134Z,63.60
2023-03-19T12:28:59.011Z,63.69
2023-03-19T12:31:53.543Z,63.92
2023-03-19T12:34:27.104Z,63.99
2023-03-19T12:37:23.491Z,63.95
2023-03-19T12:40:09.189Z,64.06
2023-03-19T12:42:43.223Z,64.43
2023-03-19T12:45:24.996Z,64.03
2023-03-19T12:48:00.570Z,64.19
2023-03-19T12:50:33.719Z,64.20
2023-03-19T12:53:05.584Z,64.27
2023-03-19T12:55:52.272Z,64.61
2023-03-19T12:58:30.430Z,64.48
2023-03-19T13:01:16.695Z,64.97
2023-03-19T13:03:59.468Z,64.80
2023-03-19T13:06:43.556Z,64.67
2023-03-19T13:09:42.006Z,64.75
2023-03-19T13:12:26.737Z,64.73
2023-03-19T13:15:11.049Z,65.21
2023-03-19T13:17:49.601Z,64.73
2023-03-19T13:20:58.941Z,64.91
2023-03-19T13:23:34.506Z,65.07
2023-03-19T13:26:07.275Z,64.98
2023-03-19T13:28:40.800Z,65.15
2023-03-19T13:31:32.357Z,64.91
2023-03-19T13:34:20.460Z,65.08
2023-03-19T13:37:09.436Z,64.98
2023-03-19T13:39:40.311Z,64.98
2023-03-19T13:42:31.484Z,64.72
2023-03-19T13:45:27.291Z,64.74
2023-03-19T13:48:03.185Z,64.85
2023-03-19T13:51:12.915Z,65.34
2023-03-19T13:53:54.552Z,65.07
2023-03-19T13:58:55.016Z,64.99
2023-03-19T14:01:30.916Z,65.12
2023-03-19T14:04:17.286Z,65.14
2023-03-19T14:06:54.893Z,64.87
2023-03-19T14:09:33.442Z,64.72
2023-03-19T14:12:37.650Z,65.31
2023-03-19T14:15:21.691Z,65.67
2023-03-19T14:17:56.462Z,65.82
2023-03-19T14:20:37.427Z,65.82
2023-03-19T14:23:12.827Z,65.82
2023-03-19T14:26:13.178Z,65.84
2023-03-19T14:29:19.023Z,66.08
2023-03-19T14:31:58.162Z,66.05
2023-03-19T14:34:57.616Z,65.97
2023-03-19T14:37:32.161Z,66.01
2023-03-19T14:40:20.631Z,66.31
2023-03-19T14:42:56.335Z,66.23
2023-03-19T14:45:48.693Z,66.06
2023-03-19T14:48:35.068Z,66.23
2023-03-19T14:51:48.794Z,66.56
2023-03-19T14:54:47.051Z,66.33
2023-03-19T14:57:22.495Z,66.72
2023-03-19T14:59:53.247Z,66.57
2023-03-19T15:02:35.208Z,66.68
2023-03-19T15:05:12.231Z,66.46
2023-03-19T15:07:49.259Z,66.52
2023-03-19T15:10:24.593Z,66.82
2023-03-19T15:13:09.366Z,66.87
2023-03-19T15:15:46.644Z,67.16
2023-03-19T15:18:18.920Z,67.09
2023-03-19T15:20:56.535Z,66.73
2023-03-19T15:23:31.508Z,66.70
2023-03-19T15:26:04.025Z,66.74
2023-03-19T15:28:38.468Z,66.90
2023-03-19T15:31:28.791Z,66.94
2023-03-19T15:33:59.912Z,66.96
2023-03-19T15:36:35.794Z,66.88
2023-03-19T15:39:09.238Z,67.02
2023-03-19T15:41:43.477Z,67.31
2023-03-19T15:44:38.598Z,67.00
2023-03-19T15:47:13.641Z,67.45
2023-03-19T15:49:51.605Z,66.95
2023-03-19T15:52:45.032Z,67.16
2023-03-19T15:58:06.199Z,67.33
2023-03-19T16:00:40.380Z,67.44
2023-03-19T16:03:18.713Z,67.60
2023-03-19T16:05:54.398Z,67.52
2023-03-19T16:08:29.580Z,67.56
2023-03-19T16:11:16.489Z,67.40
2023-03-19T16:14:00.100Z,67.65
2023-03-19T16:16:35.576Z,67.74
2023-03-19T16:19:14.736Z,67.94
2023-03-19T16:21:46.044Z,67.94
2023-03-19T16:24:33.123Z,68.05
2023-03-19T16:27:19.324Z,67.73
2023-03-19T16:30:02.023Z,67.76
2023-03-19T16:32:33.972Z,67.57
2023-03-19T16:35:21.915Z,68.01
2023-03-19T16:37:56.879Z,67.80
2023-03-19T16:40:26.887Z,67.98
2023-03-19T16:42:58.333Z,67.84
2023-03-19T16:45:33.366Z,68.05
2023-03-19T16:48:08.370Z,68.04
2023-03-19T16:50:43.280Z,68.03
2023-03-19T16:53:31.511Z,67.84
2023-03-19T16:56:03.810Z,67.83
2023-03-19T16:58:39.324Z,67.71
2023-03-19T17:01:31.869Z,67.92
2023-03-19T17:04:01.973Z,67.78
2023-03-19T17:06:36.515Z,67.76
2023-03-19T17:09:06.708Z,67.59
2023-03-19T17:11:42.947Z,67.90
2023-03-19T17:14:22.241Z,67.92
2023-03-19T17:16:56.685Z,68.10
2023-03-19T17:19:30.122Z,67.68
2023-03-19T17:22:01.760Z,67.98
2023-03-19T17:24:36.579Z,68.14
2023-03-19T17:27:07.099Z,68.30
2023-03-19T17:29:37.165Z,68.03
2023-03-19T17:32:10.313Z,68.12
2023-03-19T17:34:40.721Z,68.68
2023-03-19T17:37:19.089Z,68.23
2023-03-19T17:39:49.179Z,68.45
2023-03-19T17:42:27.822Z,68.39
2023-03-19T17:45:00.605Z,68.45
2023-03-19T17:47:30.896Z,68.45
2023-03-19T17:50:01.552Z,68.83
2023-03-19T17:52:32.798Z,68.55
2023-03-19T17:55:02.622Z,68.75
2023-03-19T17:57:33.942Z,68.55
2023-03-19T18:00:04.154Z,68.62
2023-03-19T18:02:35.308Z,68.85
2023-03-19T18:05:06.240Z,68.85
2023-03-19T18:07:36.852Z,69.00
2023-03-19T18:10:06.982Z,69.06
2023-03-19T18:12:36.826Z,68.96
2023-03-19T18:15:07.050Z,68.72
2023-03-19T18:17:37.257Z,68.78
2023-03-19T18:20:08.497Z,68.92
2023-03-19T18:22:38.746Z,68.95
2023-03-19T18:25:09.156Z,68.66
2023-03-19T18:27:39.241Z,68.81
2023-03-19T18:30:09.720Z,69.00
2023-03-19T18:32:45.433Z,68.86
2023-03-19T18:35:30.378Z,68.64
2023-03-19T18:38:00.862Z,68.73
2023-03-19T18:40:34.069Z,68.81
2023-03-19T18:43:04.360Z,68.54
2023-03-19T18:45:35.224Z,68.83
2023-03-19T18:48:05.340Z,68.45
2023-03-19T18:50:35.431Z,68.53
2023-03-19T18:53:05.729Z,68.59
2023-03-19T18:55:36.317Z,68.62
2023-03-19T18:58:06.643Z,68.41
2023-03-19T19:00:40.115Z,68.29
2023-03-19T19:03:10.299Z,68.49
2023-03-19T19:05:40.267Z,68.27
2023-03-19T19:08:19.529Z,68.36
2023-03-19T19:10:53.734Z,68.42
2023-03-19T19:13:29.363Z,68.44
2023-03-19T19:15:59.826Z,68.47
2023-03-19T19:18:33.946Z,68.39
2023-03-19T19:21:04.157Z,68.60
2023-03-19T19:23:34.125Z,68.39
2023-03-19T19:26:04.364Z,68.20
2023-03-19T19:28:41.369Z,68.39
2023-03-19T19:31:24.337Z,68.33
2023-03-19T19:33:55.801Z,68.42
2023-03-19T19:36:26.881Z,68.27
2023-03-19T19:38:57.459Z,68.30
2023-03-19T19:41:29.433Z,68.36
2023-03-19T19:44:03.697Z,68.21
2023-03-19T19:46:34.745Z,68.42
2023-03-19T19:49:04.849Z,68.63
2023-03-19T19:51:34.932Z,68.39
2023-03-19T19:54:05.165Z,68.10
2023-03-19T19:56:35.223Z,68.10
2023-03-19T19:59:08.067Z,68.26
2023-03-19T20:01:38.195Z,68.47
2023-03-19T20:04:08.376Z,68.39
2023-03-19T20:06:38.735Z,68.34
2023-03-19T20:09:09.960Z,68.30
2023-03-19T20:11:40.190Z,68.50
2023-03-19T20:14:16.011Z,68.48
2023-03-19T20:16:46.366Z,68.26
2023-03-19T20:19:22.225Z,68.68
2023-03-19T20:21:53.169Z,68.75
2023-03-19T20:24:23.209Z,68.62
2023-03-19T20:26:53.413Z,68.36
2023-03-19T20:29:23.529Z,68.73
2023-03-19T20:31:53.509Z,68.58
2023-03-19T20:34:38.443Z,68.48
2023-03-19T20:37:09.058Z,68.82
2023-03-19T20:39:38.878Z,68.56
2023-03-19T20:42:15.615Z,68.94
2023-03-19T20:44:47.322Z,68.72
2023-03-19T20:47:27.949Z,68.90
2023-03-19T20:49:57.921Z,68.91
2023-03-19T20:52:28.139Z,68.60
2023-03-19T20:54:58.883Z,68.94
2023-03-19T20:57:33.723Z,69.04
2023-03-19T21:00:15.125Z,68.58
2023-03-19T21:02:45.745Z,68.57
2023-03-19T21:05:17.197Z,68.87
2023-03-19T21:07:49.762Z,68.70
2023-03-19T21:10:30.716Z,68.67
2023-03-19T21:13:01.897Z,69.14
2023-03-19T21:15:32.156Z,68.86
2023-03-19T21:18:02.295Z,68.87
2023-03-19T21:20:34.398Z,69.01
2023-03-19T21:23:27.639Z,68.84
2023-03-19T21:25:58.163Z,68.92
2023-03-19T21:28:32.611Z,68.97
2023-03-19T21:31:02.891Z,68.69
2023-03-19T21:33:35.314Z,69.18
2023-03-19T21:36:06.318Z,69.08
2023-03-19T21:38:37.343Z,69.33
2023-03-19T21:41:12.656Z,68.85
2023-03-19T21:43:46.737Z,69.04
2023-03-19T21:46:24.723Z,68.77
2023-03-19T21:49:00.495Z,68.96
2023-03-19T21:51:32.624Z,68.80
2023-03-19T21:54:02.652Z,68.88
2023-03-19T21:56:35.650Z,68.77
2023-03-19T21:59:12.551Z,69.18
2023-03-19T22:01:43.794Z,69.28
2023-03-19T22:04:14.255Z,68.92
2023-03-19T22:06:45.123Z,68.87
2023-03-19T22:09:15.621Z,69.06
2023-03-19T22:11:48.176Z,69.11
2023-03-19T22:14:26.968Z,68.94
2023-03-19T22:16:58.628Z,69.40
2023-03-19T22:19:28.765Z,69.07
2023-03-19T22:21:58.587Z,69.26
2023-03-19T22:24:28.455Z,69.49
2023-03-19T22:27:00.028Z,69.68
2023-03-19T22:29:30.267Z,69.45
2023-03-19T22:32:00.694Z,69.92
2023-03-19T22:34:30.871Z,69.60
2023-03-19T22:37:02.322Z,69.56
2023-03-19T22:39:32.714Z,69.90
2023-03-19T22:42:02.765Z,69.90
2023-03-19T22:44:33.501Z,69.75
2023-03-19T22:47:04.807Z,69.99
2023-03-19T22:49:36.571Z,69.80
2023-03-19T22:52:06.775Z,69.51
2023-03-19T22:54:37.955Z,69.62
2023-03-19T22:57:08.740Z,69.96
2023-03-19T23:02:18.832Z,69.54
2023-03-19T23:04:50.142Z,69.54
2023-03-19T23:07:21.260Z,69.73
2023-03-19T23:09:51.581Z,69.93
2023-03-19T23:12:22.655Z,70.04
2023-03-19T23:14:52.935Z,70.15
2023-03-19T23:17:23.157Z,70.09
2023-03-19T23:19:53.310Z,70.00
2023-03-19T23:22:23.772Z,70.24
2023-03-19T23:24:53.789Z,70.21
2023-03-19T23:27:27.093Z,70.25
2023-03-19T23:29:57.362Z,70.11
2023-03-19T23:32:28.828Z,70.43
2023-03-19T23:35:01.840Z,70.02
2023-03-19T23:37:32.175Z,69.95
2023-03-19T23:40:02.490Z,69.84
2023-03-19T23:42:34.210Z,69.88
2023-03-19T23:45:08.775Z,70.40
2023-03-19T23:47:39.145Z,69.95
2023-03-19T23:50:14.974Z,69.98
2023-03-19T23:52:45.057Z,70.15
2023-03-19T23:55:15.130Z,69.95
2023-03-19T23:57:46.606Z,70.38
